createdAt,value
2023-01-28T00:01:17.307Z,77.14
2023-01-28T00:03:44.031Z,77.73
2023-01-28T00:06:13.537Z,77.16
2023-01-28T00:08:40.720Z,77.48
2023-01-28T00:11:08.170Z,77.65
2023-01-28T00:13:34.898Z,77.33
2023-01-28T00:16:04.969Z,77.69
2023-01-28T00:18:32.510Z,77.19
2023-01-28T00:21:03.830Z,77.44
2023-01-28T00:23:32.836Z,77.07
2023-01-28T00:26:00.487Z,77.17
2023-01-28T00:28:27.272Z,76.93
2023-01-28T00:30:53.821Z,76.54
2023-01-28T00:33:20.399Z,76.91
2023-01-28T00:35:47.477Z,76.50
2023-01-28T00:38:14.013Z,76.62
2023-01-28T00:40:40.449Z,76.40
2023-01-28T00:43:06.918Z,75.61
2023-01-28T00:45:33.399Z,76.05
2023-01-28T00:47:59.944Z,75.69
2023-01-28T00:50:26.435Z,75.61
2023-01-28T00:52:52.906Z,75.92
2023-01-28T00:55:19.991Z,75.66
2023-01-28T00:57:46.433Z,75.15
2023-01-28T01:00:13.156Z,75.25
2023-01-28T01:02:41.755Z,74.84
2023-01-28T01:05:08.808Z,74.78
2023-01-28T01:07:41.961Z,74.89
2023-01-28T01:10:11.321Z,76.15
2023-01-28T01:12:38.999Z,75.75
2023-01-28T01:15:10.302Z,76.07
2023-01-28T01:17:41.901Z,76.18
2023-01-28T01:20:13.265Z,75.58
2023-01-28T01:22:39.788Z,75.31
2023-01-28T01:25:06.759Z,75.80
2023-01-28T01:27:33.362Z,75.68
2023-01-28T01:29:59.884Z,76.43
2023-01-28T01:32:30.821Z,76.07
2023-01-28T01:34:58.046Z,76.54
2023-01-28T01:37:24.507Z,76.02
2023-01-28T01:39:51.035Z,76.17
2023-01-28T01:42:17.532Z,76.35
2023-01-28T01:45:22.391Z,76.10
2023-01-28T01:48:02.098Z,75.95
2023-01-28T01:50:40.172Z,75.80
2023-01-28T01:53:14.097Z,76.43
2023-01-28T01:55:44.819Z,76.00
2023-01-28T01:58:17.236Z,75.42
2023-01-28T02:00:43.984Z,76.27
2023-01-28T02:03:11.596Z,76.51
2023-01-28T02:05:39.496Z,76.54
2023-01-28T02:08:21.512Z,76.50
2023-01-28T02:11:09.320Z,76.62
2023-01-28T02:13:41.289Z,75.87
2023-01-28T02:16:09.513Z,76.34
2023-01-28T02:18:36.161Z,76.57
2023-01-28T02:21:40.069Z,76.67
2023-01-28T02:24:34.762Z,76.72
2023-01-28T02:27:16.199Z,77.17
2023-01-28T02:29:54.446Z,77.17
2023-01-28T02:32:29.427Z,77.14
2023-01-28T02:35:10.278Z,77.16
2023-01-28T02:38:11.421Z,76.96
2023-01-28T02:41:00.753Z,76.25
2023-01-28T02:43:31.413Z,76.21
2023-01-28T02:46:17.371Z,76.56
2023-01-28T02:48:44.063Z,76.82
2023-01-28T02:51:21.896Z,76.56
2023-01-28T02:53:59.556Z,76.62
2023-01-28T02:56:36.273Z,76.49
2023-01-28T02:59:34.006Z,76.76
2023-01-28T03:02:12.398Z,76.29
2023-01-28T03:04:48.157Z,76.57
2023-01-28T03:07:17.460Z,76.81
2023-01-28T03:09:46.858Z,76.55
2023-01-28T03:12:37.946Z,77.19
2023-01-28T03:15:32.972Z,77.06
2023-01-28T03:18:43.008Z,77.87
2023-01-28T03:21:32.358Z,77.84
2023-01-28T03:24:30.191Z,77.78
2023-01-28T03:27:24.995Z,77.49
2023-01-28T03:30:15.232Z,77.02
2023-01-28T03:33:02.120Z,78.11
2023-01-28T03:35:51.601Z,77.76
2023-01-28T03:38:23.221Z,78.15
2023-01-28T03:40:50.967Z,77.57
2023-01-28T03:43:17.534Z,78.12
2023-01-28T03:45:43.964Z,78.32
2023-01-28T03:48:10.465Z,78.20
2023-01-28T03:50:37.035Z,77.93
2023-01-28T03:53:14.972Z,78.33
2023-01-28T03:55:43.123Z,78.05
2023-01-28T03:58:10.740Z,78.15
2023-01-28T04:00:42.135Z,78.30
2023-01-28T04:03:19.696Z,77.99
2023-01-28T04:06:01.485Z,78.39
2023-01-28T04:08:28.533Z,77.94
2023-01-28T04:10:56.289Z,77.81
2023-01-28T04:13:23.019Z,78.13
2023-01-28T04:15:49.802Z,77.73
2023-01-28T04:18:16.398Z,77.59
2023-01-28T04:20:42.928Z,77.40
2023-01-28T04:23:09.756Z,77.48
2023-01-28T04:25:36.204Z,77.47
2023-01-28T04:28:02.835Z,77.28
2023-01-28T04:30:29.396Z,76.63
2023-01-28T04:32:55.877Z,76.78
2023-01-28T04:35:22.331Z,75.85
2023-01-28T04:37:48.748Z,76.06
2023-01-28T04:40:15.324Z,75.79
2023-01-28T04:42:41.862Z,75.95
2023-01-28T04:45:08.930Z,75.54
2023-01-28T04:47:35.433Z,75.13
2023-01-28T04:50:01.933Z,74.97
2023-01-28T04:52:28.390Z,75.33
2023-01-28T04:54:54.873Z,74.39
2023-01-28T04:57:21.370Z,74.28
2023-01-28T04:59:47.836Z,74.12
2023-01-28T05:02:14.315Z,74.40
2023-01-28T05:04:40.831Z,73.64
2023-01-28T05:07:07.279Z,73.83
2023-01-28T05:09:33.767Z,73.92
2023-01-28T05:12:00.269Z,74.02
2023-01-28T05:14:26.826Z,73.72
2023-01-28T05:16:53.269Z,73.26
2023-01-28T05:19:19.827Z,73.66
2023-01-28T05:21:46.469Z,73.31
2023-01-28T05:24:13.010Z,72.89
2023-01-28T05:26:39.566Z,73.05
2023-01-28T05:29:06.084Z,72.72
2023-01-28T05:31:32.644Z,72.95
2023-01-28T05:33:59.377Z,73.30
2023-01-28T05:36:26.127Z,71.91
2023-01-28T05:38:52.626Z,72.26
2023-01-28T05:41:19.080Z,72.10
2023-01-28T05:43:45.558Z,72.47
2023-01-28T05:46:12.029Z,72.53
2023-01-28T05:48:38.598Z,72.80
2023-01-28T05:51:06.032Z,72.54
2023-01-28T05:53:32.606Z,72.48
2023-01-28T05:55:59.133Z,73.06
2023-01-28T05:58:27.524Z,72.88
2023-01-28T06:00:56.437Z,72.12
2023-01-28T06:03:23.142Z,72.38
2023-01-28T06:05:49.574Z,73.09
2023-01-28T06:08:16.031Z,72.55
2023-01-28T06:10:42.720Z,72.25
2023-01-28T06:13:09.189Z,72.90
2023-01-28T06:15:35.737Z,72.37
2023-01-28T06:18:02.304Z,73.56
2023-01-28T06:20:28.987Z,73.08
2023-01-28T06:22:55.488Z,73.18
2023-01-28T06:25:22.014Z,72.37
2023-01-28T06:27:48.542Z,72.33
2023-01-28T06:30:15.504Z,72.74
2023-01-28T06:32:42.158Z,72.00
2023-01-28T06:35:08.913Z,72.33
2023-01-28T06:37:35.430Z,72.32
2023-01-28T06:40:02.849Z,72.98
2023-01-28T06:42:29.298Z,72.65
2023-01-28T06:44:55.767Z,72.38
2023-01-28T06:47:22.231Z,73.36
2023-01-28T06:49:48.736Z,73.43
2023-01-28T06:52:15.185Z,72.97
2023-01-28T06:54:41.671Z,71.82
2023-01-28T06:57:08.121Z,72.69
2023-01-28T06:59:34.780Z,72.90
2023-01-28T07:02:01.204Z,72.78
2023-01-28T07:04:27.670Z,73.71
2023-01-28T07:06:54.135Z,73.48
2023-01-28T07:09:20.743Z,73.14
2023-01-28T07:11:47.210Z,72.33
2023-01-28T07:14:13.676Z,71.95
2023-01-28T07:16:40.148Z,72.80
2023-01-28T07:19:06.610Z,71.88
2023-01-28T07:21:33.107Z,72.78
2023-01-28T07:23:59.607Z,72.91
2023-01-28T07:26:26.145Z,72.37
2023-01-28T07:28:52.615Z,73.44
2023-01-28T07:31:19.234Z,72.40
2023-01-28T07:33:45.858Z,72.96
2023-01-28T07:36:12.328Z,72.18
2023-01-28T07:38:38.778Z,72.29
2023-01-28T07:41:05.501Z,72.76
2023-01-28T07:43:31.974Z,71.71
2023-01-28T07:46:01.683Z,72.74
2023-01-28T07:48:28.201Z,73.17
2023-01-28T07:50:58.739Z,72.79
2023-01-28T07:53:25.361Z,72.65
2023-01-28T07:55:51.905Z,72.34
2023-01-28T07:58:18.439Z,72.56
2023-01-28T08:00:45.002Z,72.84
2023-01-28T08:03:16.433Z,73.46
2023-01-28T08:05:49.574Z,72.97
2023-01-28T08:08:17.067Z,72.99
2023-01-28T08:10:44.308Z,72.63
2023-01-28T08:13:11.887Z,72.89
2023-01-28T08:15:38.955Z,73.26
2023-01-28T08:18:06.717Z,72.91
2023-01-28T08:20:33.318Z,73.09
2023-01-28T08:23:12.313Z,73.01
2023-01-28T08:25:38.952Z,73.46
2023-01-28T08:28:06.659Z,73.11
2023-01-28T08:30:34.113Z,72.49
2023-01-28T08:33:00.880Z,72.55
2023-01-28T08:35:28.384Z,73.21
2023-01-28T08:37:55.021Z,73.16
2023-01-28T08:40:21.881Z,73.04
2023-01-28T08:42:52.962Z,73.18
2023-01-28T08:45:27.671Z,73.49
2023-01-28T08:47:58.429Z,73.62
2023-01-28T08:50:28.219Z,72.86
2023-01-28T08:52:57.119Z,72.69
2023-01-28T08:55:24.128Z,72.55
2023-01-28T08:57:50.644Z,72.41
2023-01-28T09:00:17.833Z,71.42
2023-01-28T09:02:44.443Z,71.63
2023-01-28T09:05:11.189Z,71.53
2023-01-28T09:07:38.793Z,71.69
2023-01-28T09:10:06.432Z,72.31
2023-01-28T09:12:33.368Z,72.75
2023-01-28T09:14:59.859Z,73.19
2023-01-28T09:17:26.342Z,72.27
2023-01-28T09:19:52.928Z,73.19
2023-01-28T09:22:19.476Z,73.27
2023-01-28T09:24:45.950Z,74.61
2023-01-28T09:27:12.531Z,72.82
2023-01-28T09:29:39.081Z,72.79
2023-01-28T09:32:09.546Z,71.97
2023-01-28T09:34:36.192Z,72.01
2023-01-28T09:37:02.700Z,71.96
2023-01-28T09:39:29.179Z,72.09
2023-01-28T09:42:13.840Z,72.07
2023-01-28T09:44:43.015Z,72.12
2023-01-28T09:47:20.797Z,70.55
2023-01-28T09:49:50.811Z,70.89
2023-01-28T09:52:21.712Z,71.16
2023-01-28T09:55:07.332Z,71.39
2023-01-28T09:57:55.585Z,70.75
2023-01-28T10:00:35.158Z,70.26
2023-01-28T10:03:08.685Z,70.69
2023-01-28T10:05:50.920Z,70.99
2023-01-28T10:08:52.393Z,70.00
2023-01-28T10:11:44.005Z,70.08
2023-01-28T10:14:31.834Z,70.42
2023-01-28T10:17:12.940Z,70.39
2023-01-28T10:19:53.779Z,70.40
2023-01-28T10:22:29.479Z,70.88
2023-01-28T10:25:01.790Z,71.02
2023-01-28T10:27:30.851Z,69.93
2023-01-28T10:29:59.896Z,70.14
2023-01-28T10:32:35.777Z,70.56
2023-01-28T10:35:03.525Z,69.90
2023-01-28T10:37:39.277Z,69.25
2023-01-28T10:40:08.131Z,69.00
2023-01-28T10:42:39.592Z,68.60
2023-01-28T10:45:15.838Z,69.28
2023-01-28T10:47:48.806Z,69.46
2023-01-28T10:50:20.602Z,69.39
2023-01-28T10:52:57.751Z,68.70
2023-01-28T10:55:29.031Z,68.06
2023-01-28T10:57:55.995Z,68.87
2023-01-28T11:00:24.467Z,65.95
2023-01-28T11:02:51.070Z,66.75
2023-01-28T11:05:21.689Z,66.34
2023-01-28T11:07:49.931Z,66.40
2023-01-28T11:10:34.846Z,66.83
2023-01-28T11:13:04.843Z,66.18
2023-01-28T11:15:32.341Z,66.85
2023-01-28T11:18:06.338Z,66.33
2023-01-28T11:20:38.946Z,66.98
2023-01-28T11:23:05.492Z,65.90
2023-01-28T11:25:37.429Z,64.67
2023-01-28T11:28:08.224Z,65.96
2023-01-28T11:30:40.189Z,64.31
2023-01-28T11:33:12.586Z,65.01
2023-01-28T11:35:39.241Z,64.55
2023-01-28T11:38:18.705Z,64.75
2023-01-28T11:40:56.151Z,65.24
2023-01-28T11:43:28.793Z,63.81
2023-01-28T11:46:07.260Z,64.53
2023-01-28T11:48:52.776Z,63.88
2023-01-28T11:51:43.088Z,64.80
2023-01-28T11:54:46.951Z,64.77
2023-01-28T11:57:39.693Z,64.60
2023-01-28T12:00:44.864Z,64.28
2023-01-28T12:03:36.150Z,63.57
2023-01-28T12:06:20.946Z,63.09
2023-01-28T12:09:06.825Z,62.80
2023-01-28T12:12:01.031Z,62.14
2023-01-28T12:14:56.558Z,61.65
2023-01-28T12:17:46.491Z,62.13
2023-01-28T12:20:21.893Z,62.43
2023-01-28T12:23:00.116Z,62.82
2023-01-28T12:25:26.534Z,62.39
2023-01-28T12:28:08.777Z,61.83
2023-01-28T12:30:41.262Z,62.07
2023-01-28T12:33:12.952Z,61.87
2023-01-28T12:35:51.260Z,60.44
2023-01-28T12:38:55.141Z,60.13
2023-01-28T12:41:28.399Z,60.52
2023-01-28T12:44:04.244Z,61.16
2023-01-28T12:46:55.610Z,62.00
2023-01-28T12:49:29.633Z,62.68
2023-01-28T12:52:07.161Z,62.64
2023-01-28T12:54:45.381Z,61.86
2023-01-28T12:57:19.049Z,61.61
2023-01-28T12:59:48.470Z,61.21
2023-01-28T13:02:15.091Z,60.96
2023-01-28T13:05:08.205Z,62.09
2023-01-28T13:07:56.636Z,61.80
2023-01-28T13:10:36.702Z,59.00
2023-01-28T13:13:05.573Z,61.25
2023-01-28T13:15:32.628Z,61.88
2023-01-28T13:18:01.148Z,60.57
2023-01-28T13:20:47.792Z,60.69
2023-01-28T13:23:44.772Z,60.58
2023-01-28T13:26:22.454Z,60.17
2023-01-28T13:28:52.193Z,60.20
2023-01-28T13:31:21.466Z,59.11
2023-01-28T13:33:53.932Z,59.38
2023-01-28T13:36:34.319Z,58.08
2023-01-28T13:39:14.506Z,59.23
2023-01-28T13:41:49.461Z,59.42
2023-01-28T13:44:25.293Z,58.86
2023-01-28T13:47:12.672Z,58.79
2023-01-28T13:49:44.098Z,59.36
2023-01-28T13:52:10.604Z,59.19
2023-01-28T13:54:43.875Z,58.67
2023-01-28T13:57:31.918Z,58.89
2023-01-28T14:00:46.845Z,58.52
2023-01-28T14:03:32.172Z,58.34
2023-01-28T14:06:20.479Z,58.09
2023-01-28T14:09:10.952Z,57.51
2023-01-28T14:11:40.345Z,57.46
2023-01-28T14:14:06.775Z,57.88
2023-01-28T14:16:55.600Z,56.65
2023-01-28T14:19:44.547Z,56.53
2023-01-28T14:22:19.117Z,56.31
2023-01-28T14:24:46.193Z,56.18
2023-01-28T14:27:22.971Z,54.00
2023-01-28T14:30:18.684Z,55.42
2023-01-28T14:32:48.244Z,54.99
2023-01-28T14:35:34.945Z,52.10
2023-01-28T14:38:09.159Z,50.69
2023-01-28T14:40:39.257Z,50.81
2023-01-28T14:43:15.898Z,50.59
2023-01-28T14:46:04.977Z,51.93
2023-01-28T14:48:49.748Z,52.76
2023-01-28T14:51:22.354Z,51.96
2023-01-28T14:54:03.287Z,50.97
2023-01-28T14:56:44.946Z,51.80
2023-01-28T14:59:49.733Z,52.22
2023-01-28T15:02:27.187Z,48.98
2023-01-28T15:04:54.505Z,48.36
2023-01-28T15:07:22.525Z,48.48
2023-01-28T15:10:24.484Z,48.00
2023-01-28T15:13:17.116Z,50.03
2023-01-28T15:15:49.821Z,52.44
2023-01-28T15:18:19.475Z,52.17
2023-01-28T15:20:52.597Z,53.43
2023-01-28T15:23:26.240Z,54.22
2023-01-28T15:25:55.321Z,56.88
2023-01-28T15:28:33.054Z,57.40
2023-01-28T15:31:00.164Z,57.09
2023-01-28T15:33:26.979Z,58.03
2023-01-28T15:35:55.243Z,58.37
2023-01-28T15:38:23.561Z,58.31
2023-01-28T15:40:58.823Z,58.87
2023-01-28T15:43:33.425Z,60.06
2023-01-28T15:46:00.666Z,61.12
2023-01-28T15:48:34.918Z,61.69
2023-01-28T15:51:07.834Z,62.17
2023-01-28T15:53:45.193Z,62.70
2023-01-28T15:56:13.732Z,62.87
2023-01-28T15:58:41.825Z,62.68
2023-01-28T16:01:08.579Z,62.39
2023-01-28T16:03:39.369Z,64.19
2023-01-28T16:06:10.052Z,64.68
2023-01-28T16:08:56.625Z,65.17
2023-01-28T16:11:33.544Z,65.12
2023-01-28T16:14:00.823Z,64.28
2023-01-28T16:16:34.444Z,64.27
2023-01-28T16:19:04.640Z,64.39
2023-01-28T16:21:38.549Z,65.38
2023-01-28T16:24:19.862Z,66.31
2023-01-28T16:26:56.280Z,66.53
2023-01-28T16:29:22.949Z,66.76
2023-01-28T16:31:49.438Z,66.03
2023-01-28T16:34:15.941Z,66.76
2023-01-28T16:36:42.515Z,67.31
2023-01-28T16:39:09.007Z,67.24
2023-01-28T16:41:42.455Z,67.44
2023-01-28T16:44:16.070Z,67.74
2023-01-28T16:46:43.377Z,67.97
2023-01-28T16:49:10.752Z,68.47
2023-01-28T16:51:41.024Z,68.23
2023-01-28T16:54:10.076Z,69.08
2023-01-28T16:56:45.175Z,69.60
2023-01-28T16:59:12.836Z,69.29
2023-01-28T17:01:39.939Z,69.27
2023-01-28T17:04:11.951Z,69.72
2023-01-28T17:06:44.327Z,70.81
2023-01-28T17:09:15.165Z,70.90
2023-01-28T17:11:42.442Z,71.65
2023-01-28T17:14:10.908Z,70.72
2023-01-28T17:16:38.479Z,70.82
2023-01-28T17:19:05.382Z,71.63
2023-01-28T17:21:32.032Z,72.64
2023-01-28T17:24:00.897Z,73.72
2023-01-28T17:26:29.057Z,73.41
2023-01-28T17:28:56.327Z,73.22
2023-01-28T17:31:23.573Z,72.89
2023-01-28T17:33:54.727Z,72.87
2023-01-28T17:36:21.712Z,72.88
2023-01-28T17:38:48.679Z,72.77
2023-01-28T17:41:15.227Z,73.08
2023-01-28T17:43:41.723Z,73.59
2023-01-28T17:46:15.189Z,73.69
2023-01-28T17:48:42.851Z,73.62
2023-01-28T17:51:09.643Z,73.32
2023-01-28T17:53:36.196Z,74.06
2023-01-28T17:56:02.688Z,73.67
2023-01-28T17:58:29.266Z,74.17
2023-01-28T18:00:55.775Z,74.81
2023-01-28T18:03:22.300Z,74.19
2023-01-28T18:05:59.609Z,73.84
2023-01-28T18:08:26.393Z,74.21
2023-01-28T18:10:52.939Z,73.42
2023-01-28T18:13:19.416Z,74.04
2023-01-28T18:15:45.884Z,74.32
2023-01-28T18:18:12.339Z,73.56
2023-01-28T18:20:38.805Z,73.46
2023-01-28T18:23:05.293Z,73.26
2023-01-28T18:25:31.818Z,73.55
2023-01-28T18:27:58.257Z,73.95
2023-01-28T18:30:24.726Z,73.37
2023-01-28T18:32:51.320Z,73.91
2023-01-28T18:35:18.231Z,73.54
2023-01-28T18:37:44.899Z,73.88
2023-01-28T18:40:11.985Z,74.68
2023-01-28T18:42:38.479Z,74.34
2023-01-28T18:45:05.556Z,74.01
2023-01-28T18:47:32.028Z,74.71
2023-01-28T18:49:58.505Z,74.43
2023-01-28T18:52:25.042Z,74.84
2023-01-28T18:54:51.539Z,74.47
2023-01-28T18:57:19.966Z,75.21
2023-01-28T18:59:47.264Z,75.19
2023-01-28T19:02:14.729Z,75.58
2023-01-28T19:04:41.294Z,74.92
2023-01-28T19:07:11.826Z,74.57
2023-01-28T19:09:38.594Z,75.04
2023-01-28T19:12:05.332Z,74.55
2023-01-28T19:14:32.024Z,75.03
2023-01-28T19:16:58.847Z,75.00
2023-01-28T19:19:25.614Z,74.86
2023-01-28T19:21:53.466Z,74.69
2023-01-28T19:24:20.079Z,74.81
2023-01-28T19:26:46.659Z,75.00
2023-01-28T19:29:15.792Z,75.09
2023-01-28T19:31:44.397Z,75.34
2023-01-28T19:34:11.159Z,75.83
2023-01-28T19:36:38.120Z,75.34
2023-01-28T19:39:07.131Z,75.61
2023-01-28T19:41:33.773Z,75.75
2023-01-28T19:44:00.248Z,75.55
2023-01-28T19:46:26.913Z,76.19
2023-01-28T19:48:54.187Z,76.29
2023-01-28T19:51:21.500Z,76.15
2023-01-28T19:53:51.369Z,76.58
2023-01-28T19:56:19.103Z,76.39
2023-01-28T19:58:46.425Z,76.28
2023-01-28T20:01:15.660Z,76.84
2023-01-28T20:03:42.776Z,76.57
2023-01-28T20:06:13.078Z,76.66
2023-01-28T20:08:39.611Z,76.58
2023-01-28T20:11:10.632Z,76.95
2023-01-28T20:13:38.799Z,76.25
2023-01-28T20:16:13.015Z,76.53
2023-01-28T20:18:39.598Z,76.58
2023-01-28T20:21:06.288Z,76.92
2023-01-28T20:23:32.878Z,77.09
2023-01-28T20:26:00.955Z,76.46
2023-01-28T20:28:28.206Z,76.79
2023-01-28T20:30:56.259Z,76.42
2023-01-28T20:33:23.608Z,75.97
2023-01-28T20:35:50.129Z,76.36
2023-01-28T20:38:16.689Z,76.93
2023-01-28T20:40:43.867Z,76.94
2023-01-28T20:43:10.367Z,76.13
2023-01-28T20:45:36.977Z,76.25
2023-01-28T20:48:03.578Z,76.25
2023-01-28T20:50:30.051Z,76.63
2023-01-28T20:52:56.585Z,76.88
2023-01-28T20:55:23.094Z,76.65
2023-01-28T20:57:52.248Z,77.05
2023-01-28T21:00:19.362Z,76.87
2023-01-28T21:02:46.121Z,77.23
2023-01-28T21:05:12.713Z,76.88
2023-01-28T21:07:39.406Z,77.71
2023-01-28T21:10:06.549Z,77.67
2023-01-28T21:12:33.112Z,77.61
2023-01-28T21:14:59.546Z,77.60
2023-01-28T21:17:26.061Z,78.08
2023-01-28T21:19:52.608Z,78.16
2023-01-28T21:22:20.238Z,78.25
2023-01-28T21:24:48.981Z,78.28
2023-01-28T21:27:15.659Z,78.19
2023-01-28T21:29:42.379Z,78.21
2023-01-28T21:32:09.039Z,77.44
2023-01-28T21:34:35.591Z,78.22
2023-01-28T21:37:02.093Z,77.56
2023-01-28T21:39:28.578Z,77.95
2023-01-28T21:41:54.998Z,77.58
2023-01-28T21:44:21.907Z,77.55
2023-01-28T21:46:48.353Z,78.31
2023-01-28T21:49:14.846Z,78.66
2023-01-28T21:51:47.366Z,78.68
2023-01-28T21:54:17.489Z,78.80
2023-01-28T21:56:45.419Z,78.18
2023-01-28T21:59:28.242Z,78.86
2023-01-28T22:02:02.689Z,78.34
2023-01-28T22:04:37.480Z,78.88
2023-01-28T22:07:07.122Z,78.56
2023-01-28T22:09:34.595Z,78.77
2023-01-28T22:12:03.602Z,78.86
2023-01-28T22:14:30.200Z,78.97
2023-01-28T22:16:56.697Z,78.14
2023-01-28T22:19:23.229Z,78.26
2023-01-28T22:21:49.753Z,78.27
2023-01-28T22:24:25.214Z,78.34
2023-01-28T22:26:53.824Z,77.76
2023-01-28T22:29:22.033Z,78.38
2023-01-28T22:31:50.830Z,77.90
2023-01-28T22:34:19.119Z,78.84
2023-01-28T22:36:46.469Z,78.56
2023-01-28T22:39:15.199Z,79.15
2023-01-28T22:41:43.504Z,79.09
2023-01-28T22:44:10.279Z,78.67
2023-01-28T22:46:37.488Z,79.35
2023-01-28T22:49:05.253Z,79.51
2023-01-28T22:51:34.418Z,79.47
2023-01-28T22:54:01.156Z,79.78
2023-01-28T22:56:28.991Z,80.74
2023-01-28T22:58:57.292Z,80.64
2023-01-28T23:01:24.316Z,80.46
2023-01-28T23:03:51.951Z,80.47
2023-01-28T23:06:20.831Z,80.40
2023-01-28T23:08:47.937Z,80.70
2023-01-28T23:11:15.982Z,80.43
2023-01-28T23:14:02.433Z,81.02
2023-01-28T23:16:49.373Z,80.72
2023-01-28T23:19:35.471Z,80.96
2023-01-28T23:22:20.401Z,80.80
2023-01-28T23:24:46.866Z,80.69
2023-01-28T23:27:13.322Z,81.33
2023-01-28T23:29:39.848Z,81.13
2023-01-28T23:32:09.859Z,81.62
2023-01-28T23:34:41.443Z,81.23
2023-01-28T23:37:09.380Z,81.32
2023-01-28T23:39:36.145Z,80.92
2023-01-28T23:42:17.057Z,81.15
2023-01-28T23:44:44.118Z,80.89
2023-01-28T23:47:11.395Z,80.96
2023-01-28T23:49:38.839Z,82.01
2023-01-28T23:52:06.353Z,81.59
2023-01-28T23:54:33.295Z,81.13
2023-01-28T23:57:00.629Z,81.16
2023-01-28T23:59:27.424Z,80.80
